PWSweather.com
Personal Weather Stations
Station Observations
WODONGA
Wodonga, WodongaAU 3690

WodongaWodongaAU 3690

Lat: -36.121, Lon: 146.87

Elevation: 541

Station Type: Weather Station

http://www.wodongaweather.net

Latest ConditionsUpdated 9:40:02 PM GMT+10:10 Sunday, Feb 1, 2015
Currently Today's Max Today's Min Today's Average
Temperature 66.6°F19.2°C 88.0°F31.1°C 66.4°F19.1°C 79.3°F26.3°C
Dew Point 52.7°F11.5°C 59.9°F15.5°C 52.3°F11.3°C 56.0°F13.3°C
Winds 6.9 mph SE11.1 kmh SE 10.9 mph SSE17.5 kmh SSE - 5.1 mph 8.2 kmh
Wind Gusts 9.8 mph15.8 kmh 14.5 mph23.3 kmh - -
Humidity 61% 61% 37% 45%
Pressure 29.84 in1010.5 mb 29.84 in1010.5 mb 29.73 in1006.8 mb -
Hour Temp Dew Point Humidity Winds Wind Gusts Pressure Precip Precip Rate Daily Precip Total
09:40 PM 66.6°F19.2°C 52.7°F11.5°C 61% 6.9 mph SE11.1 kmh SE 9.8 mph15.8 kmh 29.84 in1010.5 mb 0.00 in0.0 mm 0.00 in/hr0.0 mm/hr 0.00 in0.0 mm
09:35 PM 66.4°F19.1°C 52.5°F11.4°C 61% 9.4 mph SE15.1 kmh SE 14.5 mph23.3 kmh 29.84 in1010.5 mb 0.00 in0.0 mm 0.00 in/hr0.0 mm/hr 0.00 in0.0 mm
09:30 PM 66.4°F19.1°C 52.5°F11.4°C 61% 9.8 mph SE15.8 kmh SE 14.5 mph23.3 kmh 29.83 in1010.2 mb 0.00 in0.0 mm 0.00 in/hr0.0 mm/hr 0.00 in0.0 mm
09:25 PM 66.6°F19.2°C 52.3°F11.3°C 60% 9.3 mph SE15.0 kmh SE 12.1 mph19.5 kmh 29.84 in1010.5 mb 0.00 in0.0 mm 0.00 in/hr0.0 mm/hr 0.00 in0.0 mm
09:20 PM 66.6°F19.2°C 52.3°F11.3°C 60% 9.0 mph SE14.5 kmh SE 11.4 mph18.3 kmh 29.83 in1010.2 mb 0.00 in0.0 mm 0.00 in/hr0.0 mm/hr 0.00 in0.0 mm
09:15 PM 66.7°F19.3°C 52.9°F11.6°C 61% 8.8 mph SE14.2 kmh SE 11.4 mph18.3 kmh 29.83 in1010.2 mb 0.00 in0.0 mm 0.00 in/hr0.0 mm/hr 0.00 in0.0 mm
09:10 PM 66.6°F19.2°C 52.7°F11.5°C 61% 9.2 mph SE14.8 kmh SE 10.7 mph17.2 kmh 29.83 in1010.2 mb 0.00 in0.0 mm 0.00 in/hr0.0 mm/hr 0.00 in0.0 mm
09:05 PM 66.7°F19.3°C 52.4°F11.3°C 60% 8.2 mph SE13.2 kmh SE 10.7 mph17.2 kmh 29.82 in1009.8 mb 0.00 in0.0 mm 0.00 in/hr0.0 mm/hr 0.00 in0.0 mm
09:00 PM 67.1°F19.5°C 52.3°F11.3°C 59% 7.2 mph SE11.6 kmh SE 9.8 mph15.8 kmh 29.83 in1010.2 mb 0.00 in0.0 mm 0.00 in/hr0.0 mm/hr 0.00 in0.0 mm
08:55 PM 67.3°F19.6°C 52.5°F11.4°C 59% 6.4 mph SE10.3 kmh SE 9.8 mph15.8 kmh 29.83 in1010.2 mb 0.00 in0.0 mm 0.00 in/hr0.0 mm/hr 0.00 in0.0 mm
08:50 PM 67.6°F19.8°C 52.8°F11.6°C 59% 4.7 mph SE7.6 kmh SE 7.6 mph12.2 kmh 29.82 in1009.8 mb 0.00 in0.0 mm 0.00 in/hr0.0 mm/hr 0.00 in0.0 mm
08:45 PM 67.6°F19.8°C 53.3°F11.8°C 60% 3.9 mph SSE6.3 kmh SSE 6.0 mph9.7 kmh 29.82 in1009.8 mb 0.00 in0.0 mm 0.00 in/hr0.0 mm/hr 0.00 in0.0 mm
08:40 PM 67.6°F19.8°C 53.3°F11.8°C 60% 6.2 mph SE10.0 kmh SE 11.4 mph18.3 kmh 29.82 in1009.8 mb 0.00 in0.0 mm 0.00 in/hr0.0 mm/hr 0.00 in0.0 mm
08:35 PM 67.8°F19.9°C 53.0°F11.7°C 59% 7.2 mph SE11.6 kmh SE 11.4 mph18.3 kmh 29.82 in1009.8 mb 0.00 in0.0 mm 0.00 in/hr0.0 mm/hr 0.00 in0.0 mm
08:30 PM 68.0°F20.0°C 53.2°F11.8°C 59% 5.6 mph SE9.0 kmh SE 8.3 mph13.4 kmh 29.82 in1009.8 mb 0.00 in0.0 mm 0.00 in/hr0.0 mm/hr 0.00 in0.0 mm
08:25 PM 68.2°F20.1°C 53.3°F11.8°C 59% 6.1 mph ESE9.8 kmh ESE 9.8 mph15.8 kmh 29.81 in1009.5 mb 0.00 in0.0 mm 0.00 in/hr0.0 mm/hr 0.00 in0.0 mm
08:20 PM 68.4°F20.2°C 53.5°F11.9°C 59% 7.8 mph E12.6 kmh E 10.7 mph17.2 kmh 29.81 in1009.5 mb 0.00 in0.0 mm 0.00 in/hr0.0 mm/hr 0.00 in0.0 mm
08:15 PM 68.9°F20.5°C 53.5°F11.9°C 58% 9.9 mph ESE15.9 kmh ESE 14.5 mph23.3 kmh 29.81 in1009.5 mb 0.00 in0.0 mm 0.00 in/hr0.0 mm/hr 0.00 in0.0 mm
08:10 PM 69.6°F20.9°C 53.7°F12.1°C 57% 9.7 mph SE15.6 kmh SE 14.5 mph23.3 kmh 29.81 in1009.5 mb 0.00 in0.0 mm 0.00 in/hr0.0 mm/hr 0.00 in0.0 mm
08:05 PM 70.2°F21.2°C 53.8°F12.1°C 56% 8.0 mph ESE12.9 kmh ESE 11.4 mph18.3 kmh 29.80 in1009.1 mb 0.00 in0.0 mm 0.00 in/hr0.0 mm/hr 0.00 in0.0 mm
08:00 PM 70.9°F21.6°C 54.4°F12.4°C 56% 7.8 mph E12.6 kmh E 9.8 mph15.8 kmh 29.80 in1009.1 mb 0.00 in0.0 mm 0.00 in/hr0.0 mm/hr 0.00 in0.0 mm
07:55 PM 71.6°F22.0°C 54.6°F12.6°C 55% 7.4 mph E11.9 kmh E 10.7 mph17.2 kmh 29.80 in1009.1 mb 0.00 in0.0 mm 0.00 in/hr0.0 mm/hr 0.00 in0.0 mm
07:50 PM 72.3°F22.4°C 54.8°F12.7°C 54% 5.3 mph ESE8.5 kmh ESE 10.7 mph17.2 kmh 29.80 in1009.1 mb 0.00 in0.0 mm 0.00 in/hr0.0 mm/hr 0.00 in0.0 mm
07:45 PM 72.9°F22.7°C 54.8°F12.7°C 53% 3.6 mph SE5.8 kmh SE 4.5 mph7.2 kmh 29.80 in1009.1 mb 0.00 in0.0 mm 0.00 in/hr0.0 mm/hr 0.00 in0.0 mm
07:40 PM 73.2°F22.9°C 54.6°F12.6°C 52% 4.7 mph SE7.6 kmh SE 8.3 mph13.4 kmh 29.79 in1008.8 mb 0.00 in0.0 mm 0.00 in/hr0.0 mm/hr 0.00 in0.0 mm
07:35 PM 73.2°F22.9°C 54.6°F12.6°C 52% 6.7 mph SE10.8 kmh SE 10.7 mph17.2 kmh 29.79 in1008.8 mb 0.00 in0.0 mm 0.00 in/hr0.0 mm/hr 0.00 in0.0 mm
07:30 PM 73.6°F23.1°C 54.4°F12.4°C 51% 7.3 mph SE11.7 kmh SE 10.7 mph17.2 kmh 29.79 in1008.8 mb 0.00 in0.0 mm 0.00 in/hr0.0 mm/hr 0.00 in0.0 mm
07:25 PM 73.9°F23.3°C 54.2°F12.3°C 50% 7.1 mph SE11.4 kmh SE 9.2 mph14.8 kmh 29.79 in1008.8 mb 0.00 in0.0 mm 0.00 in/hr0.0 mm/hr 0.00 in0.0 mm
07:20 PM 74.1°F23.4°C 53.8°F12.1°C 49% 6.7 mph SE10.8 kmh SE 9.2 mph14.8 kmh 29.78 in1008.5 mb 0.00 in0.0 mm 0.00 in/hr0.0 mm/hr 0.00 in0.0 mm
07:15 PM 74.5°F23.6°C 54.1°F12.3°C 49% 6.8 mph SE10.9 kmh SE 9.8 mph15.8 kmh 29.78 in1008.5 mb 0.00 in0.0 mm 0.00 in/hr0.0 mm/hr 0.00 in0.0 mm
07:10 PM 74.5°F23.6°C 53.5°F11.9°C 48% 8.0 mph SE12.9 kmh SE 9.8 mph15.8 kmh 29.78 in1008.5 mb 0.00 in0.0 mm 0.00 in/hr0.0 mm/hr 0.00 in0.0 mm
07:05 PM 75.0°F23.9°C 54.0°F12.2°C 48% 8.4 mph SE13.5 kmh SE 9.8 mph15.8 kmh 29.78 in1008.5 mb 0.00 in0.0 mm 0.00 in/hr0.0 mm/hr 0.00 in0.0 mm
07:00 PM 75.6°F24.2°C 53.9°F12.2°C 47% 8.1 mph SE13.0 kmh SE 9.8 mph15.8 kmh 29.77 in1008.1 mb 0.00 in0.0 mm 0.00 in/hr0.0 mm/hr 0.00 in0.0 mm
06:55 PM 75.6°F24.2°C 53.9°F12.2°C 47% 8.2 mph SE13.2 kmh SE 11.4 mph18.3 kmh 29.77 in1008.1 mb 0.00 in0.0 mm 0.00 in/hr0.0 mm/hr 0.00 in0.0 mm
06:50 PM 76.1°F24.5°C 53.9°F12.2°C 46% 8.1 mph SSE13.0 kmh SSE 11.4 mph18.3 kmh 29.77 in1008.1 mb 0.00 in0.0 mm 0.00 in/hr0.0 mm/hr 0.00 in0.0 mm
06:45 PM 76.5°F24.7°C 53.6°F12.0°C 45% 8.5 mph SSE13.7 kmh SSE 13.6 mph21.9 kmh 29.77 in1008.1 mb 0.00 in0.0 mm 0.00 in/hr0.0 mm/hr 0.00 in0.0 mm
06:40 PM 76.8°F24.9°C 53.3°F11.8°C 44% 9.7 mph SSE15.6 kmh SSE 13.6 mph21.9 kmh 29.77 in1008.1 mb 0.00 in0.0 mm 0.00 in/hr0.0 mm/hr 0.00 in0.0 mm
06:35 PM 77.5°F25.3°C 53.3°F11.8°C 43% 10.9 mph SSE17.5 kmh SSE 14.5 mph23.3 kmh 29.77 in1008.1 mb 0.00 in0.0 mm 0.00 in/hr0.0 mm/hr 0.00 in0.0 mm
06:30 PM 78.8°F26.0°C 53.8°F12.1°C 42% 9.5 mph SE15.3 kmh SE 14.5 mph23.3 kmh 29.76 in1007.8 mb 0.00 in0.0 mm 0.00 in/hr0.0 mm/hr 0.00 in0.0 mm
06:25 PM 80.2°F26.8°C 54.4°F12.4°C 41% 5.2 mph SE8.4 kmh SE 11.4 mph18.3 kmh 29.75 in1007.5 mb 0.00 in0.0 mm 0.00 in/hr0.0 mm/hr 0.00 in0.0 mm
06:20 PM 81.1°F27.3°C 54.6°F12.6°C 40% 2.6 mph SE4.2 kmh SE 3.8 mph6.1 kmh 29.75 in1007.5 mb 0.00 in0.0 mm 0.00 in/hr0.0 mm/hr 0.00 in0.0 mm
06:15 PM 81.9°F27.7°C 54.5°F12.5°C 39% 1.9 mph SSE3.1 kmh SSE 3.8 mph6.1 kmh 29.74 in1007.1 mb 0.00 in0.0 mm 0.00 in/hr0.0 mm/hr 0.00 in0.0 mm
06:10 PM 82.4°F28.0°C 55.0°F12.8°C 39% 1.7 mph SE2.7 kmh SE 3.1 mph5.0 kmh 29.74 in1007.1 mb 0.00 in0.0 mm 0.00 in/hr0.0 mm/hr 0.00 in0.0 mm
06:05 PM 82.4°F28.0°C 55.0°F12.8°C 39% 2.2 mph ESE3.5 kmh ESE 3.1 mph5.0 kmh 29.74 in1007.1 mb 0.00 in0.0 mm 0.00 in/hr0.0 mm/hr 0.00 in0.0 mm
06:00 PM 82.9°F28.3°C 55.5°F13.1°C 39% 2.3 mph ESE3.7 kmh ESE 3.1 mph5.0 kmh 29.73 in1006.8 mb 0.00 in0.0 mm 0.00 in/hr0.0 mm/hr 0.00 in0.0 mm
05:55 PM 82.9°F28.3°C 55.5°F13.1°C 39% 2.0 mph ENE3.2 kmh ENE 3.1 mph5.0 kmh 29.73 in1006.8 mb 0.00 in0.0 mm 0.00 in/hr0.0 mm/hr 0.00 in0.0 mm
05:50 PM 82.6°F28.1°C 55.2°F12.9°C 39% 2.1 mph N3.4 kmh N 3.8 mph6.1 kmh 29.73 in1006.8 mb 0.00 in0.0 mm 0.00 in/hr0.0 mm/hr 0.00 in0.0 mm
05:45 PM 82.4°F28.0°C 55.0°F12.8°C 39% 3.1 mph N5.0 kmh N 6.9 mph11.1 kmh 29.73 in1006.8 mb 0.00 in0.0 mm 0.00 in/hr0.0 mm/hr 0.00 in0.0 mm
05:40 PM 82.8°F28.2°C 54.6°F12.6°C 38% 3.0 mph N4.8 kmh N 6.9 mph11.1 kmh 29.73 in1006.8 mb 0.00 in0.0 mm 0.00 in/hr0.0 mm/hr 0.00 in0.0 mm
05:35 PM 83.5°F28.6°C 55.2°F12.9°C 38% 2.4 mph WNW3.9 kmh WNW 4.5 mph7.2 kmh 29.73 in1006.8 mb 0.00 in0.0 mm 0.00 in/hr0.0 mm/hr 0.00 in0.0 mm
05:30 PM 83.3°F28.5°C 55.8°F13.2°C 39% 3.2 mph W5.1 kmh W 5.4 mph8.7 kmh 29.73 in1006.8 mb 0.00 in0.0 mm 0.00 in/hr0.0 mm/hr 0.00 in0.0 mm
05:25 PM 82.6°F28.1°C 54.4°F12.4°C 38% 3.0 mph W4.8 kmh W 5.4 mph8.7 kmh 29.73 in1006.8 mb 0.00 in0.0 mm 0.00 in/hr0.0 mm/hr 0.00 in0.0 mm
05:20 PM 82.6°F28.1°C 55.2°F12.9°C 39% 2.6 mph WSW4.2 kmh WSW 5.4 mph8.7 kmh 29.73 in1006.8 mb 0.00 in0.0 mm 0.00 in/hr0.0 mm/hr 0.00 in0.0 mm
05:15 PM 82.4°F28.0°C 55.7°F13.2°C 40% 2.8 mph W4.5 kmh W 5.4 mph8.7 kmh 29.73 in1006.8 mb 0.00 in0.0 mm 0.00 in/hr0.0 mm/hr 0.00 in0.0 mm
05:10 PM 81.3°F27.4°C 54.7°F12.6°C 40% 3.1 mph NW5.0 kmh NW 3.8 mph6.1 kmh 29.73 in1006.8 mb 0.00 in0.0 mm 0.00 in/hr0.0 mm/hr 0.00 in0.0 mm
05:05 PM 81.9°F27.7°C 55.2°F12.9°C 40% 3.1 mph NW5.0 kmh NW 3.8 mph6.1 kmh 29.73 in1006.8 mb 0.00 in0.0 mm 0.00 in/hr0.0 mm/hr 0.00 in0.0 mm
05:00 PM 81.7°F27.6°C 55.7°F13.2°C 41% 1.6 mph NNW2.6 kmh NNW 3.1 mph5.0 kmh 29.73 in1006.8 mb 0.00 in0.0 mm 0.00 in/hr0.0 mm/hr 0.00 in0.0 mm
04:55 PM 81.9°F27.7°C 55.2°F12.9°C 40% 0.9 mph SSW1.4 kmh SSW 2.2 mph3.5 kmh 29.73 in1006.8 mb 0.00 in0.0 mm 0.00 in/hr0.0 mm/hr 0.00 in0.0 mm
04:50 PM 81.9°F27.7°C 55.2°F12.9°C 40% 1.5 mph SW2.4 kmh SW 3.1 mph5.0 kmh 29.73 in1006.8 mb 0.00 in0.0 mm 0.00 in/hr0.0 mm/hr 0.00 in0.0 mm
04:45 PM 81.7°F27.6°C 55.1°F12.8°C 40% 2.2 mph SSW3.5 kmh SSW 3.1 mph5.0 kmh 29.73 in1006.8 mb 0.00 in0.0 mm 0.00 in/hr0.0 mm/hr 0.00 in0.0 mm
04:40 PM 81.9°F27.7°C 55.9°F13.3°C 41% 2.7 mph SSW4.3 kmh SSW 4.5 mph7.2 kmh 29.73 in1006.8 mb 0.00 in0.0 mm 0.00 in/hr0.0 mm/hr 0.00 in0.0 mm
04:35 PM 81.9°F27.7°C 55.2°F12.9°C 40% 3.1 mph SW5.0 kmh SW 4.5 mph7.2 kmh 29.73 in1006.8 mb 0.00 in0.0 mm 0.00 in/hr0.0 mm/hr 0.00 in0.0 mm
04:30 PM 82.6°F28.1°C 55.9°F13.3°C 40% 3.0 mph SW4.8 kmh SW 4.5 mph7.2 kmh 29.73 in1006.8 mb 0.00 in0.0 mm 0.00 in/hr0.0 mm/hr 0.00 in0.0 mm
04:25 PM 83.8°F28.8°C 55.6°F13.1°C 38% 3.2 mph WSW5.1 kmh WSW 5.4 mph8.7 kmh 29.73 in1006.8 mb 0.00 in0.0 mm 0.00 in/hr0.0 mm/hr 0.00 in0.0 mm
04:20 PM 85.1°F29.5°C 56.7°F13.7°C 38% 2.9 mph SW4.7 kmh SW 5.4 mph8.7 kmh 29.73 in1006.8 mb 0.00 in0.0 mm 0.00 in/hr0.0 mm/hr 0.00 in0.0 mm
04:15 PM 86.2°F30.1°C 57.6°F14.2°C 38% 3.0 mph S4.8 kmh S 6.0 mph9.7 kmh 29.74 in1007.1 mb 0.00 in0.0 mm 0.00 in/hr0.0 mm/hr 0.00 in0.0 mm
04:10 PM 86.7°F30.4°C 57.4°F14.1°C 37% 4.4 mph S7.1 kmh S 7.6 mph12.2 kmh 29.73 in1006.8 mb 0.00 in0.0 mm 0.00 in/hr0.0 mm/hr 0.00 in0.0 mm
04:05 PM 88.0°F31.1°C 59.2°F15.1°C 38% 4.4 mph SSW7.1 kmh SSW 7.6 mph12.2 kmh 29.74 in1007.1 mb 0.00 in0.0 mm 0.00 in/hr0.0 mm/hr 0.00 in0.0 mm
04:00 PM 87.6°F30.9°C 58.2°F14.6°C 37% 4.0 mph WSW6.4 kmh WSW 6.0 mph9.7 kmh 29.73 in1006.8 mb 0.00 in0.0 mm 0.00 in/hr0.0 mm/hr 0.00 in0.0 mm
03:55 PM 87.1°F30.6°C 58.4°F14.7°C 38% 4.2 mph SSW6.8 kmh SSW 6.0 mph9.7 kmh 29.73 in1006.8 mb 0.00 in0.0 mm 0.00 in/hr0.0 mm/hr 0.00 in0.0 mm
03:50 PM 86.7°F30.4°C 58.9°F14.9°C 39% 3.8 mph S6.1 kmh S 6.0 mph9.7 kmh 29.74 in1007.1 mb 0.00 in0.0 mm 0.00 in/hr0.0 mm/hr 0.00 in0.0 mm
03:45 PM 85.8°F29.9°C 58.8°F14.9°C 40% 3.3 mph ESE5.3 kmh ESE 5.4 mph8.7 kmh 29.73 in1006.8 mb 0.00 in0.0 mm 0.00 in/hr0.0 mm/hr 0.00 in0.0 mm
03:40 PM 85.5°F29.7°C 57.7°F14.3°C 39% 3.6 mph SSE5.8 kmh SSE 5.4 mph8.7 kmh 29.74 in1007.1 mb 0.00 in0.0 mm 0.00 in/hr0.0 mm/hr 0.00 in0.0 mm
03:35 PM 85.1°F29.5°C 58.8°F14.9°C 41% 3.9 mph S6.3 kmh S 5.4 mph8.7 kmh 29.74 in1007.1 mb 0.00 in0.0 mm 0.00 in/hr0.0 mm/hr 0.00 in0.0 mm
03:30 PM 84.4°F29.1°C 57.5°F14.2°C 40% 4.0 mph S6.4 kmh S 6.0 mph9.7 kmh 29.74 in1007.1 mb 0.00 in0.0 mm 0.00 in/hr0.0 mm/hr 0.00 in0.0 mm
03:25 PM 83.5°F28.6°C 58.0°F14.4°C 42% 4.9 mph SSE7.9 kmh SSE 6.9 mph11.1 kmh 29.74 in1007.1 mb 0.00 in0.0 mm 0.00 in/hr0.0 mm/hr 0.00 in0.0 mm
03:20 PM 83.7°F28.7°C 56.8°F13.8°C 40% 5.0 mph SE8.0 kmh SE 6.9 mph11.1 kmh 29.74 in1007.1 mb 0.00 in0.0 mm 0.00 in/hr0.0 mm/hr 0.00 in0.0 mm
03:15 PM 85.3°F29.6°C 57.6°F14.2°C 39% 4.3 mph SE6.9 kmh SE 6.9 mph11.1 kmh 29.74 in1007.1 mb 0.00 in0.0 mm 0.00 in/hr0.0 mm/hr 0.00 in0.0 mm
03:10 PM 87.1°F30.6°C 59.2°F15.1°C 39% 3.3 mph SSE5.3 kmh SSE 5.4 mph8.7 kmh 29.74 in1007.1 mb 0.00 in0.0 mm 0.00 in/hr0.0 mm/hr 0.00 in0.0 mm
03:05 PM 85.6°F29.8°C 58.6°F14.8°C 40% 3.7 mph WNW6.0 kmh WNW 6.0 mph9.7 kmh 29.74 in1007.1 mb 0.00 in0.0 mm 0.00 in/hr0.0 mm/hr 0.00 in0.0 mm
03:00 PM 84.4°F29.1°C 56.8°F13.8°C 39% 4.1 mph W6.6 kmh W 6.9 mph11.1 kmh 29.75 in1007.5 mb 0.00 in0.0 mm 0.00 in/hr0.0 mm/hr 0.00 in0.0 mm
02:55 PM 84.9°F29.4°C 57.2°F14.0°C 39% 3.8 mph WSW6.1 kmh WSW 6.9 mph11.1 kmh 29.75 in1007.5 mb 0.00 in0.0 mm 0.00 in/hr0.0 mm/hr 0.00 in0.0 mm
02:50 PM 86.2°F30.1°C 57.6°F14.2°C 38% 4.3 mph S6.9 kmh S 6.9 mph11.1 kmh 29.75 in1007.5 mb 0.00 in0.0 mm 0.00 in/hr0.0 mm/hr 0.00 in0.0 mm
02:45 PM 86.5°F30.3°C 59.4°F15.2°C 40% 4.1 mph SE6.6 kmh SE 6.0 mph9.7 kmh 29.75 in1007.5 mb 0.00 in0.0 mm 0.00 in/hr0.0 mm/hr 0.00 in0.0 mm
02:40 PM 85.6°F29.8°C 59.3°F15.2°C 41% 4.1 mph SSE6.6 kmh SSE 6.0 mph9.7 kmh 29.75 in1007.5 mb 0.00 in0.0 mm 0.00 in/hr0.0 mm/hr 0.00 in0.0 mm
02:35 PM 84.2°F29.0°C 59.3°F15.2°C 43% 4.5 mph S7.2 kmh S 7.6 mph12.2 kmh 29.76 in1007.8 mb 0.00 in0.0 mm 0.00 in/hr0.0 mm/hr 0.00 in0.0 mm
02:30 PM 81.5°F27.5°C 56.2°F13.4°C 42% 4.7 mph SE7.6 kmh SE 8.3 mph13.4 kmh 29.76 in1007.8 mb 0.00 in0.0 mm 0.00 in/hr0.0 mm/hr 0.00 in0.0 mm
02:25 PM 80.1°F26.7°C 55.6°F13.1°C 43% 4.3 mph ESE6.9 kmh ESE 8.3 mph13.4 kmh 29.75 in1007.5 mb 0.00 in0.0 mm 0.00 in/hr0.0 mm/hr 0.00 in0.0 mm
02:20 PM 80.2°F26.8°C 55.8°F13.2°C 43% 3.6 mph SE5.8 kmh SE 6.9 mph11.1 kmh 29.75 in1007.5 mb 0.00 in0.0 mm 0.00 in/hr0.0 mm/hr 0.00 in0.0 mm
02:15 PM 80.4°F26.9°C 55.9°F13.3°C 43% 3.5 mph SSE5.6 kmh SSE 5.4 mph8.7 kmh 29.76 in1007.8 mb 0.00 in0.0 mm 0.00 in/hr0.0 mm/hr 0.00 in0.0 mm
02:10 PM 80.8°F27.1°C 56.2°F13.4°C 43% 3.5 mph SE5.6 kmh SE 5.4 mph8.7 kmh 29.76 in1007.8 mb 0.00 in0.0 mm 0.00 in/hr0.0 mm/hr 0.00 in0.0 mm
02:00 PM 81.9°F27.7°C 55.2°F12.9°C 40% 4.8 mph ENE7.7 kmh ENE 6.9 mph11.1 kmh 29.76 in1007.8 mb 0.00 in0.0 mm 0.00 in/hr0.0 mm/hr 0.00 in0.0 mm
01:55 PM 84.0°F28.9°C 56.4°F13.6°C 39% 4.6 mph E7.4 kmh E 6.9 mph11.1 kmh 29.76 in1007.8 mb 0.00 in0.0 mm 0.00 in/hr0.0 mm/hr 0.00 in0.0 mm
01:50 PM 86.4°F30.2°C 59.9°F15.5°C 41% 3.6 mph ESE5.8 kmh ESE 5.4 mph8.7 kmh 29.77 in1008.1 mb 0.00 in0.0 mm 0.00 in/hr0.0 mm/hr 0.00 in0.0 mm
01:45 PM 85.3°F29.6°C 58.3°F14.6°C 40% 3.3 mph E5.3 kmh E 5.4 mph8.7 kmh 29.76 in1007.8 mb 0.00 in0.0 mm 0.00 in/hr0.0 mm/hr 0.00 in0.0 mm
01:30 PM 84.4°F29.1°C 56.8°F13.8°C 39% 3.8 mph NW6.1 kmh NW 6.9 mph11.1 kmh 29.77 in1008.1 mb 0.00 in0.0 mm 0.00 in/hr0.0 mm/hr 0.00 in0.0 mm
01:25 PM 84.4°F29.1°C 57.5°F14.2°C 40% 5.1 mph NNW8.2 kmh NNW 8.3 mph13.4 kmh 29.77 in1008.1 mb 0.00 in0.0 mm 0.00 in/hr0.0 mm/hr 0.00 in0.0 mm
01:20 PM 84.0°F28.9°C 57.1°F13.9°C 40% 6.7 mph N10.8 kmh N 8.3 mph13.4 kmh 29.77 in1008.1 mb 0.00 in0.0 mm 0.00 in/hr0.0 mm/hr 0.00 in0.0 mm
01:15 PM 83.5°F28.6°C 57.4°F14.1°C 41% 6.6 mph N10.6 kmh N 9.2 mph14.8 kmh 29.77 in1008.1 mb 0.00 in0.0 mm 0.00 in/hr0.0 mm/hr 0.00 in0.0 mm
01:10 PM 83.1°F28.4°C 57.0°F13.9°C 41% 6.6 mph NNW10.6 kmh NNW 9.2 mph14.8 kmh 29.77 in1008.1 mb 0.00 in0.0 mm 0.00 in/hr0.0 mm/hr 0.00 in0.0 mm
01:05 PM 83.1°F28.4°C 57.0°F13.9°C 41% 7.3 mph N11.7 kmh N 9.8 mph15.8 kmh 29.77 in1008.1 mb 0.00 in0.0 mm 0.00 in/hr0.0 mm/hr 0.00 in0.0 mm
01:00 PM 82.8°F28.2°C 57.4°F14.1°C 42% 7.1 mph N11.4 kmh N 10.7 mph17.2 kmh 29.78 in1008.5 mb 0.00 in0.0 mm 0.00 in/hr0.0 mm/hr 0.00 in0.0 mm
12:55 PM 83.1°F28.4°C 57.7°F14.3°C 42% 6.3 mph NNE10.1 kmh NNE 10.7 mph17.2 kmh 29.78 in1008.5 mb 0.00 in0.0 mm 0.00 in/hr0.0 mm/hr 0.00 in0.0 mm
12:50 PM 84.0°F28.9°C 57.8°F14.3°C 41% 5.2 mph NE8.4 kmh NE 9.8 mph15.8 kmh 29.78 in1008.5 mb 0.00 in0.0 mm 0.00 in/hr0.0 mm/hr 0.00 in0.0 mm
12:45 PM 84.9°F29.4°C 59.3°F15.2°C 42% 5.0 mph SE8.0 kmh SE 7.6 mph12.2 kmh 29.78 in1008.5 mb 0.00 in0.0 mm 0.00 in/hr0.0 mm/hr 0.00 in0.0 mm
12:40 PM 83.8°F28.8°C 58.3°F14.6°C 42% 5.5 mph ENE8.9 kmh ENE 7.6 mph12.2 kmh 29.79 in1008.8 mb 0.00 in0.0 mm 0.00 in/hr0.0 mm/hr 0.00 in0.0 mm
12:35 PM 83.1°F28.4°C 58.4°F14.7°C 43% 5.5 mph N8.9 kmh N 9.8 mph15.8 kmh 29.79 in1008.8 mb 0.00 in0.0 mm 0.00 in/hr0.0 mm/hr 0.00 in0.0 mm
12:30 PM 82.6°F28.1°C 57.9°F14.4°C 43% 5.7 mph N9.2 kmh N 9.8 mph15.8 kmh 29.79 in1008.8 mb 0.00 in0.0 mm 0.00 in/hr0.0 mm/hr 0.00 in0.0 mm
12:20 PM 82.4°F28.0°C 56.4°F13.6°C 41% 6.0 mph NW9.7 kmh NW 11.4 mph18.3 kmh 29.80 in1009.1 mb 0.00 in0.0 mm 0.00 in/hr0.0 mm/hr 0.00 in0.0 mm
12:15 PM 83.1°F28.4°C 58.4°F14.7°C 43% 4.7 mph N7.6 kmh N 6.9 mph11.1 kmh 29.79 in1008.8 mb 0.00 in0.0 mm 0.00 in/hr0.0 mm/hr 0.00 in0.0 mm
12:10 PM 83.8°F28.8°C 58.3°F14.6°C 42% 3.3 mph NNW5.3 kmh NNW 6.9 mph11.1 kmh 29.80 in1009.1 mb 0.00 in0.0 mm 0.00 in/hr0.0 mm/hr 0.00 in0.0 mm
12:05 PM 84.6°F29.2°C 59.0°F15.0°C 42% 3.2 mph S5.1 kmh S 5.4 mph8.7 kmh 29.80 in1009.1 mb 0.00 in0.0 mm 0.00 in/hr0.0 mm/hr 0.00 in0.0 mm
11:50 AM 83.3°F28.5°C 59.2°F15.1°C 44% 4.3 mph SE6.9 kmh SE 7.6 mph12.2 kmh 29.81 in1009.5 mb 0.00 in0.0 mm 0.00 in/hr0.0 mm/hr 0.00 in0.0 mm
11:45 AM 82.0°F27.8°C 59.3°F15.2°C 46% 3.9 mph NW6.3 kmh NW 7.6 mph12.2 kmh 29.81 in1009.5 mb 0.00 in0.0 mm 0.00 in/hr0.0 mm/hr 0.00 in0.0 mm
11:40 AM 80.6°F27.0°C 56.7°F13.7°C 44% 4.1 mph NNW6.6 kmh NNW 7.6 mph12.2 kmh 29.81 in1009.5 mb 0.00 in0.0 mm 0.00 in/hr0.0 mm/hr 0.00 in0.0 mm
11:35 AM 81.1°F27.3°C 56.6°F13.7°C 43% 4.2 mph ENE6.8 kmh ENE 7.6 mph12.2 kmh 29.81 in1009.5 mb 0.00 in0.0 mm 0.00 in/hr0.0 mm/hr 0.00 in0.0 mm
11:30 AM 81.9°F27.7°C 57.9°F14.4°C 44% 4.2 mph ESE6.8 kmh ESE 7.6 mph12.2 kmh 29.82 in1009.8 mb 0.00 in0.0 mm 0.00 in/hr0.0 mm/hr 0.00 in0.0 mm
11:25 AM 82.4°F28.0°C 57.7°F14.3°C 43% 3.8 mph SE6.1 kmh SE 5.4 mph8.7 kmh 29.82 in1009.8 mb 0.00 in0.0 mm 0.00 in/hr0.0 mm/hr 0.00 in0.0 mm
11:20 AM 82.0°F27.8°C 58.6°F14.8°C 45% 3.6 mph SE5.8 kmh SE 5.4 mph8.7 kmh 29.82 in1009.8 mb 0.00 in0.0 mm 0.00 in/hr0.0 mm/hr 0.00 in0.0 mm
11:15 AM 81.1°F27.3°C 58.4°F14.7°C 46% 3.2 mph ESE5.1 kmh ESE 4.5 mph7.2 kmh 29.82 in1009.8 mb 0.00 in0.0 mm 0.00 in/hr0.0 mm/hr 0.00 in0.0 mm
11:10 AM 80.2°F26.8°C 57.6°F14.2°C 46% 3.9 mph ENE6.3 kmh ENE 5.4 mph8.7 kmh 29.82 in1009.8 mb 0.00 in0.0 mm 0.00 in/hr0.0 mm/hr 0.00 in0.0 mm
11:00 AM 79.5°F26.4°C 57.6°F14.2°C 47% 4.1 mph NE6.6 kmh NE 7.6 mph12.2 kmh 29.82 in1009.8 mb 0.00 in0.0 mm 0.00 in/hr0.0 mm/hr 0.00 in0.0 mm
10:55 AM 80.2°F26.8°C 57.6°F14.2°C 46% 4.4 mph SE7.1 kmh SE 7.6 mph12.2 kmh 29.82 in1009.8 mb 0.00 in0.0 mm 0.00 in/hr0.0 mm/hr 0.00 in0.0 mm
10:50 AM 80.6°F27.0°C 57.9°F14.4°C 46% 4.7 mph SSE7.6 kmh SSE 6.9 mph11.1 kmh 29.82 in1009.8 mb 0.00 in0.0 mm 0.00 in/hr0.0 mm/hr 0.00 in0.0 mm
10:45 AM 80.4°F26.9°C 58.4°F14.7°C 47% 5.2 mph SSE8.4 kmh SSE 6.9 mph11.1 kmh 29.83 in1010.2 mb 0.00 in0.0 mm 0.00 in/hr0.0 mm/hr 0.00 in0.0 mm
10:40 AM 79.3°F26.3°C 58.6°F14.8°C 49% 4.3 mph SE6.9 kmh SE 6.9 mph11.1 kmh 29.82 in1009.8 mb 0.00 in0.0 mm 0.00 in/hr0.0 mm/hr 0.00 in0.0 mm
10:35 AM 78.3°F25.7°C 58.1°F14.5°C 50% 4.5 mph SE7.2 kmh SE 7.6 mph12.2 kmh 29.83 in1010.2 mb 0.00 in0.0 mm 0.00 in/hr0.0 mm/hr 0.00 in0.0 mm
10:30 AM 77.5°F25.3°C 56.9°F13.8°C 49% 4.8 mph ENE7.7 kmh ENE 7.6 mph12.2 kmh 29.83 in1010.2 mb 0.00 in0.0 mm 0.00 in/hr0.0 mm/hr 0.00 in0.0 mm
10:25 AM 77.4°F25.2°C 56.7°F13.7°C 49% 5.0 mph ENE8.0 kmh ENE 9.2 mph14.8 kmh 29.83 in1010.2 mb 0.00 in0.0 mm 0.00 in/hr0.0 mm/hr 0.00 in0.0 mm
10:20 AM 77.4°F25.2°C 57.3°F14.1°C 50% 4.9 mph SE7.9 kmh SE 9.2 mph14.8 kmh 29.83 in1010.2 mb 0.00 in0.0 mm 0.00 in/hr0.0 mm/hr 0.00 in0.0 mm
10:15 AM 77.4°F25.2°C 56.2°F13.4°C 48% 5.1 mph SE8.2 kmh SE 8.3 mph13.4 kmh 29.83 in1010.2 mb 0.00 in0.0 mm 0.00 in/hr0.0 mm/hr 0.00 in0.0 mm
10:10 AM 77.4°F25.2°C 57.9°F14.4°C 51% 5.4 mph SE8.7 kmh SE 8.3 mph13.4 kmh 29.83 in1010.2 mb 0.00 in0.0 mm 0.00 in/hr0.0 mm/hr 0.00 in0.0 mm
10:05 AM 76.5°F24.7°C 57.0°F13.9°C 51% 5.6 mph E9.0 kmh E 9.2 mph14.8 kmh 29.83 in1010.2 mb 0.00 in0.0 mm 0.00 in/hr0.0 mm/hr 0.00 in0.0 mm
10:00 AM 75.9°F24.4°C 57.1°F13.9°C 52% 7.2 mph E11.6 kmh E 10.7 mph17.2 kmh 29.83 in1010.2 mb 0.00 in0.0 mm 0.00 in/hr0.0 mm/hr 0.00 in0.0 mm